Time;durP1;ratioP1;P1;durP2;ratioP2;P2;SDS_P1;SDS_P2;PMS_P1;PMS_P2;Temp;Humidity;BMP_temperature;BMP_pressure;BME280_temperature;BME280_humidity;BME280_pressure;Samples;Min_cycle;Max_cycle;Signal;HPM_P1;HPM_P2
2023/01/23 00:00:56;;;;;;;41.55;22.40;;;0.50;99.90;;;;;;5020985;28;20033;-77
2023/01/23 00:03:23;;;;;;;44.25;22.27;;;0.60;99.90;;;;;;5038492;28;20045;-77
2023/01/23 00:06:03;;;;;;;54.17;29.67;;;0.60;99.90;;;;;;5040889;28;20518;-77
2023/01/23 00:08:33;;;;;;;45.97;24.20;;;0.60;99.90;;;;;;5010893;28;20068;-76
2023/01/23 00:11:02;;;;;;;49.05;23.25;;;0.70;99.90;;;;;;5032147;28;20420;-77
2023/01/23 00:13:29;;;;;;;58.10;28.33;;;0.70;99.90;;;;;;5015191;28;20242;-77
2023/01/23 00:15:56;;;;;;;48.28;24.88;;;0.60;99.90;;;;;;5038627;28;20065;-78
2023/01/23 00:18:22;;;;;;;52.33;25.30;;;0.60;99.90;;;;;;5044720;28;20051;-77
2023/01/23 00:20:49;;;;;;;53.90;26.88;;;0.60;99.90;;;;;;5034781;28;20056;-76
2023/01/23 00:23:16;;;;;;;54.10;26.38;;;0.60;99.90;;;;;;5043696;28;20061;-77
2023/01/23 00:25:43;;;;;;;48.65;24.33;;;0.60;99.90;;;;;;5036499;28;20037;-77
2023/01/23 00:28:10;;;;;;;58.53;26.70;;;0.60;99.90;;;;;;5024489;28;20029;-76
2023/01/23 00:30:36;;;;;;;58.63;27.10;;;0.60;99.90;;;;;;5037866;28;20045;-77
2023/01/23 00:33:03;;;;;;;68.43;28.42;;;0.70;99.90;;;;;;5040119;28;20138;-77
2023/01/23 00:35:32;;;;;;;73.00;32.58;;;0.70;99.90;;;;;;5023602;28;20044;-77
2023/01/23 00:37:59;;;;;;;73.20;30.92;;;0.70;99.90;;;;;;5042230;28;20067;-77
2023/01/23 00:40:26;;;;;;;73.97;30.77;;;0.70;99.90;;;;;;5024851;28;20421;-77
2023/01/23 00:42:53;;;;;;;73.70;31.80;;;0.70;99.90;;;;;;5019308;28;20037;-77
2023/01/23 00:45:19;;;;;;;80.32;32.90;;;0.60;99.90;;;;;;5032762;28;20032;-77
2023/01/23 00:47:46;;;;;;;84.22;34.45;;;0.60;99.90;;;;;;5038891;28;20037;-77
2023/01/23 00:50:13;;;;;;;73.43;33.72;;;0.60;99.90;;;;;;5030966;28;20041;-77
2023/01/23 00:52:40;;;;;;;77.35;32.63;;;0.60;99.90;;;;;;5031314;28;20167;-78
2023/01/23 00:55:07;;;;;;;74.30;31.58;;;0.60;99.90;;;;;;5024014;28;20037;-77
2023/01/23 00:57:34;;;;;;;86.80;33.55;;;0.60;99.90;;;;;;5023908;28;20132;-78
2023/01/23 01:00:01;;;;;;;69.78;30.48;;;0.60;99.90;;;;;;5040371;28;20041;-78
2023/01/23 01:02:31;;;;;;;74.22;27.55;;;0.50;99.90;;;;;;5038789;28;20069;-78
2023/01/23 01:04:57;;;;;;;72.15;26.13;;;0.60;99.90;;;;;;5032582;28;20037;-78
2023/01/23 01:07:24;;;;;;;72.50;30.50;;;0.50;99.90;;;;;;5061744;28;20071;-78
2023/01/23 01:09:51;;;;;;;69.63;28.20;;;0.50;99.90;;;;;;5063278;28;20059;-77
2023/01/23 01:12:18;;;;;;;71.25;26.70;;;0.60;99.90;;;;;;5056287;28;20056;-76
2023/01/23 01:14:45;;;;;;;69.93;28.98;;;0.50;99.90;;;;;;5021797;28;20052;-77
2023/01/23 01:17:14;;;;;;;63.15;25.25;;;0.50;99.90;;;;;;5038883;28;20714;-77
2023/01/23 01:19:41;;;;;;;63.00;24.85;;;0.40;99.90;;;;;;5040749;28;20186;-77
2023/01/23 01:22:07;;;;;;;38.30;16.75;;;0.50;99.90;;;;;;5027276;28;20045;-77
2023/01/23 01:24:34;;;;;;;69.75;29.80;;;0.50;99.90;;;;;;5040291;28;20540;-77
2023/01/23 01:27:01;;;;;;;70.60;30.13;;;0.50;99.90;;;;;;5021113;28;20108;-77
2023/01/23 01:29:27;;;;;;;69.93;29.02;;;0.50;99.90;;;;;;5040939;28;20048;-77
2023/01/23 01:31:56;;;;;;;63.17;26.42;;;0.50;99.90;;;;;;5015663;28;20087;-77
2023/01/23 01:34:23;;;;;;;56.90;24.63;;;0.50;99.90;;;;;;5022935;28;20143;-76
2023/01/23 01:36:50;;;;;;;47.70;20.95;;;0.50;99.90;;;;;;5035341;28;20110;-77
2023/01/23 01:39:18;;;;;;;62.30;28.95;;;0.50;99.90;;;;;;5022719;28;20159;-77
2023/01/23 01:41:45;;;;;;;67.85;28.52;;;0.40;99.90;;;;;;5023502;28;20719;-77
2023/01/23 01:44:20;;;;;;;68.82;27.48;;;0.50;99.90;;;;;;5038405;28;20037;-77
2023/01/23 01:46:48;;;;;;;56.65;23.92;;;0.50;99.90;;;;;;5021312;28;20208;-77
2023/01/23 01:49:19;;;;;;;66.63;29.80;;;0.50;99.90;;;;;;5020755;28;20047;-78
2023/01/23 01:52:08;;;;;;;64.68;27.67;;;0.50;99.90;;;;;;5044915;28;20122;-78
2023/01/23 01:54:48;;;;;;;59.30;26.42;;;0.50;99.90;;;;;;5037666;28;20045;-78
2023/01/23 01:57:53;;;;;;;62.00;24.08;;;0.50;99.90;;;;;;5045313;28;20593;-77
2023/01/23 02:00:20;;;;;;;65.70;27.63;;;0.50;99.90;;;;;;4995032;28;20114;-78
2023/01/23 02:02:50;;;;;;;62.63;27.20;;;0.50;99.90;;;;;;5032518;28;20049;-77
2023/01/23 02:05:30;;;;;;;67.07;28.67;;;0.50;99.90;;;;;;5047605;28;20045;-77
2023/01/23 02:08:12;;;;;;;61.17;25.92;;;0.50;99.90;;;;;;5020722;28;20036;-78
2023/01/23 02:10:39;;;;;;;62.40;26.30;;;0.50;99.90;;;;;;5026877;28;20067;-78
2023/01/23 02:13:24;;;;;;;51.28;20.85;;;0.50;99.90;;;;;;5025839;28;20082;-78
2023/01/23 02:15:51;;;;;;;;;;;0.60;99.90;;;;;;5023929;28;20103;-77
2023/01/23 02:18:19;;;;;;;51.70;22.92;;;0.50;99.90;;;;;;5028268;28;19920;-77
2023/01/23 02:20:47;;;;;;;51.50;24.48;;;0.50;99.90;;;;;;5038316;28;20067;-76
2023/01/23 02:23:38;;;;;;;55.17;25.52;;;0.50;99.90;;;;;;5026536;28;20203;-77
2023/01/23 02:26:12;;;;;;;49.63;23.10;;;0.60;99.90;;;;;;5037787;28;20041;-76
2023/01/23 02:28:47;;;;;;;54.88;25.85;;;0.60;99.90;;;;;;5040051;28;20044;-76
2023/01/23 02:31:19;;;;;;;49.17;23.00;;;0.60;99.90;;;;;;5018058;28;20194;-77
2023/01/23 02:33:57;;;;;;;42.40;19.38;;;0.60;99.90;;;;;;5028366;28;20049;-77
2023/01/23 02:36:27;;;;;;;50.90;22.90;;;0.60;99.90;;;;;;5021563;28;20041;-76
2023/01/23 02:39:06;;;;;;;64.15;26.15;;;0.60;99.90;;;;;;5040524;28;20037;-77
2023/01/23 02:41:38;;;;;;;63.30;28.02;;;0.60;99.90;;;;;;5020168;28;20163;-76
2023/01/23 02:44:18;;;;;;;67.28;29.52;;;0.60;99.90;;;;;;5039115;28;20448;-76
2023/01/23 02:46:51;;;;;;;61.65;25.48;;;0.70;99.90;;;;;;5017545;28;20663;-76
2023/01/23 02:49:18;;;;;;;67.10;27.77;;;0.60;99.90;;;;;;5035769;28;20108;-76
2023/01/23 02:51:47;;;;;;;68.25;27.05;;;0.60;99.90;;;;;;5037916;28;20056;-76
2023/01/23 02:54:14;;;;;;;79.70;31.20;;;0.60;99.90;;;;;;5039413;28;20124;-75
2023/01/23 02:56:41;;;;;;;76.88;31.67;;;0.70;99.90;;;;;;5040198;28;20551;-78
2023/01/23 03:01:54;;;;;;;65.93;26.27;;;0.70;99.90;;;;;;5037661;28;20143;-76
2023/01/23 03:04:21;;;;;;;77.88;29.90;;;0.60;99.90;;;;;;5042579;28;20041;-78
2023/01/23 03:06:48;;;;;;;83.40;31.88;;;0.70;99.90;;;;;;5040484;28;20040;-76
2023/01/23 03:09:16;;;;;;;69.28;30.73;;;0.70;99.90;;;;;;5032623;28;20044;-76
2023/01/23 03:11:45;;;;;;;61.83;27.90;;;0.70;99.90;;;;;;5041884;28;20492;-75
2023/01/23 03:14:16;;;;;;;71.13;30.15;;;0.70;99.90;;;;;;5012951;28;20573;-77
2023/01/23 03:16:48;;;;;;;68.22;29.73;;;0.70;99.90;;;;;;5034418;28;20159;-78
2023/01/23 03:19:19;;;;;;;67.50;29.40;;;0.70;99.90;;;;;;5023111;28;20105;-77
2023/01/23 03:21:46;;;;;;;72.32;29.98;;;0.80;99.90;;;;;;5023676;28;20095;-79
2023/01/23 03:24:13;;;;;;;72.32;29.60;;;0.80;99.90;;;;;;5026010;28;20508;-77
2023/01/23 03:26:42;;;;;;;67.97;28.42;;;0.80;99.90;;;;;;5023629;28;20052;-77
2023/01/23 03:32:11;;;;;;;76.60;31.75;;;0.80;99.90;;;;;;5028868;28;20033;-76
2023/01/23 03:34:38;;;;;;;76.55;32.97;;;0.90;99.90;;;;;;5053043;28;20048;-78
2023/01/23 03:37:06;;;;;;;70.32;31.50;;;0.80;99.90;;;;;;5035712;28;20037;-76
2023/01/23 03:42:23;;;;;;;71.30;27.85;;;0.90;99.90;;;;;;5032933;28;20127;-76
2023/01/23 03:44:52;;;;;;;59.95;25.10;;;0.80;99.90;;;;;;5047054;28;20683;-77
2023/01/23 03:47:25;;;;;;;59.42;23.67;;;0.80;99.90;;;;;;5044186;28;20104;-76
2023/01/23 03:49:53;;;;;;;56.33;25.00;;;0.70;99.90;;;;;;5031155;28;20041;-76
2023/01/23 03:52:19;;;;;;;57.40;25.65;;;0.70;99.90;;;;;;5017816;28;20107;-77
2023/01/23 03:54:49;;;;;;;69.40;27.90;;;0.80;99.90;;;;;;5040185;28;20090;-77
2023/01/23 03:57:16;;;;;;;58.15;26.48;;;0.80;99.90;;;;;;5018292;28;20709;-76
2023/01/23 03:59:46;;;;;;;59.05;23.83;;;0.80;99.90;;;;;;5046576;28;20106;-76
2023/01/23 04:02:15;;;;;;;58.65;24.30;;;0.70;99.90;;;;;;5024865;28;20041;-79
2023/01/23 04:04:42;;;;;;;67.38;25.48;;;0.70;99.90;;;;;;5049251;28;20055;-77
2023/01/23 04:07:08;;;;;;;69.72;27.17;;;0.70;99.90;;;;;;5018745;28;20115;-80
2023/01/23 04:09:38;;;;;;;63.50;25.33;;;0.80;99.90;;;;;;5027314;28;20103;-76
2023/01/23 04:12:05;;;;;;;65.88;25.48;;;0.70;99.90;;;;;;5028936;28;20041;-76
2023/01/23 04:14:36;;;;;;;67.88;25.30;;;0.70;99.90;;;;;;5020332;28;20524;-77
2023/01/23 04:17:04;;;;;;;70.60;27.95;;;0.70;99.90;;;;;;5041402;28;20577;-77
2023/01/23 04:19:31;;;;;;;61.92;22.83;;;0.70;99.90;;;;;;5026125;28;20052;-76
2023/01/23 04:21:59;;;;;;;83.22;28.45;;;0.70;99.90;;;;;;5040810;28;20433;-78
2023/01/23 04:24:29;;;;;;;78.22;26.80;;;0.70;99.90;;;;;;5026746;28;20048;-79
2023/01/23 04:26:56;;;;;;;61.50;20.60;;;0.70;99.90;;;;;;5013554;28;20041;-78
2023/01/23 04:29:24;;;;;;;89.75;27.63;;;0.70;99.90;;;;;;5020268;28;20542;-77
2023/01/23 04:31:52;;;;;;;80.85;27.55;;;0.70;99.90;;;;;;5032594;28;20064;-77
2023/01/23 04:34:19;;;;;;;75.55;25.35;;;0.80;99.90;;;;;;5043819;28;20048;-77
2023/01/23 04:36:47;;;;;;;92.53;27.58;;;0.70;99.90;;;;;;5044264;28;20514;-78
2023/01/23 04:39:14;;;;;;;82.75;26.25;;;0.70;99.90;;;;;;5024191;28;20395;-77
2023/01/23 04:41:44;;;;;;;82.07;27.30;;;0.70;99.90;;;;;;5024051;28;20432;-76
2023/01/23 04:44:24;;;;;;;74.75;26.08;;;0.70;99.90;;;;;;5032102;28;20170;-77
2023/01/23 04:47:08;;;;;;;76.55;25.67;;;0.70;99.90;;;;;;5041213;28;20646;-77
2023/01/23 04:49:35;;;;;;;82.38;28.00;;;0.70;99.90;;;;;;5041180;28;20068;-77
2023/01/23 04:52:03;;;;;;;67.28;23.85;;;0.70;99.90;;;;;;5026867;28;20066;-77
2023/01/23 04:54:34;;;;;;;44.00;16.83;;;0.70;99.90;;;;;;5033817;28;20096;-77
2023/01/23 04:57:01;;;;;;;53.58;20.27;;;0.60;99.90;;;;;;5018292;28;20478;-77
2023/01/23 04:59:29;;;;;;;46.65;18.50;;;0.60;99.90;;;;;;5012301;28;20044;-77
2023/01/23 05:01:56;;;;;;;43.45;19.35;;;0.60;99.90;;;;;;5021444;28;20056;-77
2023/01/23 05:04:23;;;;;;;46.90;19.00;;;0.60;99.90;;;;;;5027510;28;20232;-77
2023/01/23 05:06:51;;;;;;;43.35;19.33;;;0.60;99.90;;;;;;5024478;28;20056;-76
2023/01/23 05:09:17;;;;;;;41.08;18.27;;;0.70;99.90;;;;;;5013463;28;20033;-77
2023/01/23 05:11:50;;;;;;;36.08;17.02;;;0.70;99.90;;;;;;5010481;28;20514;-76
2023/01/23 05:14:17;;;;;;;40.60;17.98;;;0.70;99.90;;;;;;5014019;28;20103;-77
2023/01/23 05:16:46;;;;;;;37.75;18.35;;;0.60;99.90;;;;;;5019236;28;20076;-76
2023/01/23 05:19:16;;;;;;;33.45;16.55;;;0.70;99.90;;;;;;5027406;28;20973;-78
2023/01/23 05:21:43;;;;;;;36.13;17.42;;;0.80;99.90;;;;;;5011721;28;20107;-79
2023/01/23 05:24:15;;;;;;;40.70;17.27;;;0.80;99.90;;;;;;5038304;28;20045;-76
2023/01/23 05:26:42;;;;;;;36.33;16.05;;;0.80;99.90;;;;;;5029903;28;20041;-76
2023/01/23 05:29:09;;;;;;;37.38;15.35;;;0.70;99.90;;;;;;5018065;28;20704;-76
2023/01/23 05:31:45;;;;;;;35.85;16.65;;;0.70;99.90;;;;;;5027545;28;20739;-76
2023/01/23 05:34:30;;;;;;;30.75;14.55;;;0.70;99.90;;;;;;5026884;28;20099;-76
2023/01/23 05:37:00;;;;;;;33.72;14.65;;;0.70;99.90;;;;;;5013542;28;20047;-76
2023/01/23 05:39:32;;;;;;;32.35;14.18;;;0.80;99.90;;;;;;5033477;28;20045;-77
2023/01/23 05:41:59;;;;;;;31.65;14.65;;;0.80;99.90;;;;;;5017836;28;20530;-77
2023/01/23 05:44:49;;;;;;;30.13;14.63;;;0.70;99.90;;;;;;5019030;28;20272;-77
2023/01/23 05:47:26;;;;;;;27.58;14.63;;;0.70;99.90;;;;;;5024098;28;20135;-77
2023/01/23 05:49:54;;;;;;;30.15;14.85;;;0.70;99.90;;;;;;5036247;28;20494;-77
2023/01/23 05:52:25;;;;;;;33.50;15.63;;;0.70;99.90;;;;;;5015866;28;20474;-77
2023/01/23 05:54:53;;;;;;;28.08;15.52;;;0.70;99.90;;;;;;5013305;28;20037;-77
2023/01/23 05:57:20;;;;;;;29.27;14.82;;;0.70;99.90;;;;;;5012740;28;20029;-76
2023/01/23 06:00:07;;;;;;;27.85;13.82;;;0.60;99.90;;;;;;5031347;28;20048;-77
2023/01/23 06:02:42;;;;;;;26.70;14.48;;;0.70;99.90;;;;;;5048913;28;20761;-76
2023/01/23 06:05:15;;;;;;;30.15;14.10;;;0.70;99.90;;;;;;5035501;28;20043;-78
2023/01/23 06:08:04;;;;;;;30.02;13.73;;;0.60;99.90;;;;;;5016875;28;20513;-77
2023/01/23 06:10:32;;;;;;;31.35;15.35;;;0.60;99.90;;;;;;5035783;28;20090;-77
2023/01/23 06:12:59;;;;;;;30.45;14.63;;;0.60;99.90;;;;;;5036304;28;20135;-77
2023/01/23 06:15:26;;;;;;;28.20;14.45;;;0.70;99.90;;;;;;5024969;28;20029;-77
2023/01/23 06:17:54;;;;;;;28.52;14.05;;;0.70;99.90;;;;;;5055429;28;20029;-76
2023/01/23 06:20:22;;;;;;;26.20;13.88;;;0.70;99.90;;;;;;5049234;28;20094;-76
2023/01/23 06:22:49;;;;;;;31.20;15.10;;;0.70;99.90;;;;;;5039484;28;20558;-76
2023/01/23 06:25:19;;;;;;;27.63;14.38;;;0.70;99.90;;;;;;5023100;28;20041;-76
2023/01/23 06:27:46;;;;;;;34.40;17.85;;;0.70;99.90;;;;;;5022421;28;20049;-78
2023/01/23 06:30:14;;;;;;;31.55;16.15;;;0.80;99.90;;;;;;5036255;28;20548;-77
2023/01/23 06:32:43;;;;;;;30.35;16.25;;;0.70;99.90;;;;;;5013241;28;20049;-77
2023/01/23 06:35:12;;;;;;;28.70;15.43;;;0.70;99.90;;;;;;5013995;28;20037;-78
2023/01/23 06:37:41;;;;;;;29.52;16.08;;;0.60;99.90;;;;;;5027826;28;20049;-77
2023/01/23 06:40:14;;;;;;;34.50;15.70;;;0.60;99.90;;;;;;5024485;28;20152;-77
2023/01/23 06:42:49;;;;;;;29.33;15.10;;;0.60;99.90;;;;;;5022491;28;20044;-77
2023/01/23 06:45:16;;;;;;;30.88;15.98;;;0.60;99.90;;;;;;5026568;28;20037;-77
2023/01/23 06:47:44;;;;;;;30.73;15.57;;;0.60;99.90;;;;;;5023078;28;20192;-77
2023/01/23 06:50:11;;;;;;;32.95;15.20;;;0.60;99.90;;;;;;5027622;28;20188;-77
2023/01/23 06:52:38;;;;;;;31.60;15.57;;;0.60;99.90;;;;;;5031712;28;20098;-77
2023/01/23 06:55:05;;;;;;;32.42;16.65;;;0.60;99.90;;;;;;5029765;28;20073;-76
2023/01/23 06:57:33;;;;;;;30.88;15.52;;;0.50;99.90;;;;;;5017822;28;20045;-77
2023/01/23 07:00:02;;;;;;;30.30;14.55;;;0.60;99.90;;;;;;5009962;28;20049;-77
2023/01/23 07:02:29;;;;;;;29.35;15.20;;;0.60;99.90;;;;;;5015684;28;20067;-77
2023/01/23 07:04:56;;;;;;;26.10;13.20;;;0.60;99.90;;;;;;5011691;28;20069;-77
2023/01/23 07:07:24;;;;;;;30.20;15.25;;;0.60;99.90;;;;;;5022074;28;20058;-77
2023/01/23 07:09:52;;;;;;;30.83;14.68;;;0.60;99.90;;;;;;5009582;28;20044;-77
2023/01/23 07:12:22;;;;;;;32.53;17.52;;;0.60;99.90;;;;;;5020622;28;20037;-76
2023/01/23 07:14:49;;;;;;;31.40;17.30;;;0.70;99.90;;;;;;5034264;28;20604;-78
2023/01/23 07:17:21;;;;;;;36.35;18.85;;;0.70;99.90;;;;;;5030124;28;20059;-77
2023/01/23 07:19:50;;;;;;;29.73;16.25;;;0.70;99.90;;;;;;5036704;28;20052;-77
2023/01/23 07:22:19;;;;;;;33.97;16.80;;;0.70;99.90;;;;;;5016645;28;20037;-79
2023/01/23 07:24:46;;;;;;;36.40;18.42;;;0.70;99.90;;;;;;5034182;28;20060;-77
2023/01/23 07:27:13;;;;;;;33.28;17.23;;;0.60;99.90;;;;;;5030805;28;20064;-79
2023/01/23 07:29:41;;;;;;;32.30;17.85;;;0.70;99.90;;;;;;5032802;28;20045;-79
2023/01/23 07:32:08;;;;;;;32.05;17.40;;;0.60;99.90;;;;;;5027250;28;20480;-79
2023/01/23 07:34:37;;;;;;;37.83;18.35;;;0.70;99.90;;;;;;5033166;28;20048;-79
2023/01/23 07:37:04;;;;;;;37.60;19.38;;;0.70;99.90;;;;;;5042696;28;20519;-79
2023/01/23 07:39:30;;;;;;;39.38;18.48;;;0.70;99.90;;;;;;5012573;28;20053;-79
2023/01/23 07:41:57;;;;;;;38.67;18.35;;;0.70;99.90;;;;;;5013433;28;20069;-76
2023/01/23 07:44:26;;;;;;;37.17;19.75;;;0.70;99.90;;;;;;5030450;28;20068;-76
2023/01/23 07:46:53;;;;;;;33.20;16.95;;;0.70;99.90;;;;;;5031793;28;20565;-77
2023/01/23 07:49:20;;;;;;;36.30;19.55;;;0.70;99.90;;;;;;5017267;28;20044;-77
2023/01/23 07:51:47;;;;;;;35.58;19.00;;;0.70;99.90;;;;;;5052652;28;20118;-76
2023/01/23 07:54:13;;;;;;;40.42;20.08;;;0.80;99.90;;;;;;5015689;28;20055;-78
2023/01/23 07:56:40;;;;;;;45.28;29.05;;;0.90;99.90;;;;;;5027176;28;20251;-76
2023/01/23 07:59:07;;;;;;;44.58;23.95;;;1.00;99.90;;;;;;5046841;28;20049;-76
2023/01/23 08:01:34;;;;;;;36.53;18.27;;;0.90;99.90;;;;;;5023736;28;20056;-76
2023/01/23 08:04:00;;;;;;;44.08;23.38;;;0.90;99.90;;;;;;5015738;28;20037;-76
2023/01/23 08:06:27;;;;;;;29.55;16.52;;;0.80;99.90;;;;;;5034617;28;20033;-77
2023/01/23 08:08:54;;;;;;;31.67;16.75;;;0.80;99.90;;;;;;5039084;28;20121;-77
2023/01/23 08:11:22;;;;;;;35.25;19.67;;;0.70;99.90;;;;;;5024216;28;20040;-77
2023/01/23 08:13:49;;;;;;;30.75;16.42;;;0.80;99.90;;;;;;5042266;28;20128;-76
2023/01/23 08:16:16;;;;;;;272.50;188.63;;;0.70;99.90;;;;;;5011273;28;20048;-79
2023/01/23 08:18:43;;;;;;;33.88;19.42;;;0.70;99.90;;;;;;5039158;28;20133;-78
2023/01/23 08:21:10;;;;;;;38.42;19.38;;;0.80;99.90;;;;;;5032409;28;20033;-79
2023/01/23 08:23:37;;;;;;;34.58;20.40;;;0.90;99.90;;;;;;5029812;28;20041;-79
2023/01/23 08:26:07;;;;;;;32.53;16.60;;;0.80;99.90;;;;;;5012513;28;20043;-80
2023/01/23 08:28:34;;;;;;;28.90;16.98;;;0.90;99.90;;;;;;5016458;28;20509;-79
2023/01/23 08:31:04;;;;;;;73.45;48.97;;;0.80;99.90;;;;;;5022783;28;20048;-79
2023/01/23 08:33:33;;;;;;;38.28;20.98;;;0.90;99.90;;;;;;5036754;28;20126;-80
2023/01/23 08:36:00;;;;;;;37.42;20.00;;;0.90;99.90;;;;;;5032763;28;20544;-81
2023/01/23 08:38:27;;;;;;;34.40;19.20;;;0.90;99.90;;;;;;5043807;28;20033;-80
2023/01/23 08:40:58;;;;;;;32.47;16.35;;;1.00;99.90;;;;;;5037409;28;20124;-80
2023/01/23 08:43:25;;;;;;;33.97;18.73;;;0.90;99.90;;;;;;5034401;28;20067;-80
2023/01/23 08:45:54;;;;;;;31.95;17.83;;;0.90;99.90;;;;;;5019613;28;20048;-79
2023/01/23 08:48:23;;;;;;;34.22;19.40;;;0.90;99.90;;;;;;5025078;28;20072;-79
2023/01/23 08:50:51;;;;;;;41.13;22.02;;;1.00;99.90;;;;;;5016483;28;20111;-78
2023/01/23 08:53:18;;;;;;;36.40;19.38;;;1.10;99.90;;;;;;5019863;28;20054;-77
2023/01/23 08:55:45;;;;;;;46.13;22.92;;;1.10;99.90;;;;;;5055004;28;20153;-79
2023/01/23 08:58:15;;;;;;;36.45;19.88;;;1.20;99.90;;;;;;5034501;28;20079;-77
2023/01/23 09:00:42;;;;;;;46.47;28.17;;;1.30;99.90;;;;;;5024490;28;20051;-79
2023/01/23 09:03:09;;;;;;;45.53;28.13;;;1.20;99.90;;;;;;5039644;28;20068;-79
2023/01/23 09:05:37;;;;;;;28.33;17.33;;;1.20;99.90;;;;;;5033697;28;20129;-79
2023/01/23 09:08:04;;;;;;;31.33;17.27;;;1.20;99.90;;;;;;5036819;28;20029;-79
2023/01/23 09:10:30;;;;;;;32.63;19.10;;;1.10;99.90;;;;;;5037757;28;20069;-80
2023/01/23 09:12:57;;;;;;;33.42;19.55;;;1.10;99.90;;;;;;5024480;28;20052;-79
2023/01/23 09:15:24;;;;;;;32.92;19.63;;;1.10;99.90;;;;;;5035355;28;20037;-79
2023/01/23 09:17:50;;;;;;;31.50;17.98;;;1.20;99.90;;;;;;5049329;28;20095;-77
2023/01/23 09:20:17;;;;;;;34.17;19.83;;;1.20;99.90;;;;;;5035590;28;20102;-80
2023/01/23 09:22:45;;;;;;;33.65;20.35;;;1.20;99.90;;;;;;5032635;28;20041;-80
2023/01/23 09:25:13;;;;;;;37.78;22.00;;;1.30;99.90;;;;;;5026905;28;20131;-80
2023/01/23 09:27:39;;;;;;;30.90;19.17;;;1.30;99.90;;;;;;5025074;28;20044;-80
2023/01/23 09:30:08;;;;;;;35.75;20.80;;;1.30;99.90;;;;;;5022259;28;20044;-81
2023/01/23 09:32:35;;;;;;;32.88;20.05;;;1.30;99.90;;;;;;5023575;28;20073;-77
2023/01/23 09:35:03;;;;;;;32.65;19.08;;;1.30;99.90;;;;;;5046398;28;20049;-78
2023/01/23 09:37:58;;;;;;;36.35;21.52;;;1.30;99.90;;;;;;5033973;28;20080;-76
2023/01/23 09:40:21;;;;;;;32.05;17.60;;;1.30;99.90;;;;;;5028304;28;20103;-80
2023/01/23 09:42:50;;;;;;;37.03;20.90;;;1.40;99.90;;;;;;5033216;28;20579;-77
2023/01/23 09:45:21;;;;;;;75.25;43.80;;;1.50;99.90;;;;;;5027402;28;20041;-80
2023/01/23 09:48:14;;;;;;;30.02;18.10;;;1.60;99.90;;;;;;5035127;28;20072;-79
2023/01/23 09:50:52;;;;;;;32.20;20.00;;;1.50;99.90;;;;;;5031667;28;20042;-79
2023/01/23 09:53:22;;;;;;;33.95;23.38;;;1.50;99.90;;;;;;5024000;28;20037;-79
2023/01/23 09:56:00;;;;;;;45.08;29.40;;;1.60;99.90;;;;;;5033036;28;20067;-78
2023/01/23 09:58:42;;;;;;;28.67;17.90;;;1.50;99.90;;;;;;5019461;28;20045;-78
2023/01/23 10:01:12;;;;;;;30.08;19.83;;;1.60;99.90;;;;;;5033927;28;20056;-79
2023/01/23 10:03:39;;;;;;;49.35;36.22;;;1.50;99.90;;;;;;5036776;28;20524;-79
2023/01/23 10:06:21;;;;;;;63.05;40.53;;;1.50;99.90;;;;;;5018085;28;20493;-79
2023/01/23 10:09:13;;;;;;;102.10;59.58;;;1.30;99.90;;;;;;5031864;28;20048;-79
2023/01/23 10:11:54;;;;;;;71.30;40.65;;;1.30;99.90;;;;;;5023042;28;20090;-79
2023/01/23 10:15:11;;;;;;;31.75;19.70;;;1.50;99.90;;;;;;5043447;28;20123;-79
2023/01/23 10:18:07;;;;;;;29.55;17.30;;;1.60;99.90;;;;;;4970298;28;20100;-81
2023/01/23 10:21:00;;;;;;;34.20;19.98;;;1.50;99.90;;;;;;5041555;28;20131;-80
2023/01/23 10:23:35;;;;;;;55.90;35.38;;;1.60;99.90;;;;;;5037443;28;20099;-80
2023/01/23 10:26:03;;;;;;;29.48;18.73;;;1.30;99.90;;;;;;5051207;28;20036;-79
2023/01/23 10:28:37;;;;;;;35.85;21.77;;;1.40;99.90;;;;;;5022053;28;20056;-80
2023/01/23 10:31:21;;;;;;;30.33;17.38;;;1.50;99.90;;;;;;5013205;28;20122;-81
2023/01/23 10:34:02;;;;;;;36.25;21.65;;;1.50;99.90;;;;;;5031723;28;20744;-79
2023/01/23 10:36:37;;;;;;;43.67;24.27;;;1.50;99.90;;;;;;5040781;28;20576;-80
2023/01/23 10:39:43;;;;;;;26.70;16.58;;;1.50;99.90;;;;;;5038961;28;20068;-80
2023/01/23 10:42:11;;;;;;;33.70;19.48;;;1.40;99.90;;;;;;5043957;28;20055;-81
2023/01/23 10:44:38;;;;;;;38.55;21.92;;;1.30;99.90;;;;;;5022373;28;20044;-82
2023/01/23 10:47:16;;;;;;;45.22;28.02;;;1.40;99.90;;;;;;5037426;28;20043;-81
2023/01/23 10:49:44;;;;;;;35.70;20.65;;;1.40;99.90;;;;;;5041283;28;20155;-80
2023/01/23 10:52:30;;;;;;;29.67;17.80;;;1.60;99.90;;;;;;5044323;28;20105;-82
2023/01/23 10:54:57;;;;;;;31.70;18.80;;;1.60;99.90;;;;;;5053447;28;20056;-82
2023/01/23 10:57:47;;;;;;;28.35;17.25;;;1.60;99.90;;;;;;5027283;28;20131;-81
2023/01/23 11:00:28;;;;;;;46.83;28.33;;;1.50;99.90;;;;;;5048733;28;20510;-81
2023/01/23 11:02:58;;;;;;;29.98;17.27;;;1.60;99.90;;;;;;5016088;28;20049;-80
2023/01/23 11:05:40;;;;;;;33.58;20.58;;;1.60;99.90;;;;;;5019733;28;20059;-79
2023/01/23 11:08:23;;;;;;;29.10;16.70;;;1.50;99.90;;;;;;5020503;28;20045;-81
2023/01/23 11:10:50;;;;;;;31.38;20.05;;;1.60;99.90;;;;;;5034560;28;20041;-80
2023/01/23 11:13:29;;;;;;;29.60;18.55;;;1.60;99.90;;;;;;5034413;28;20094;-82
2023/01/23 11:15:56;;;;;;;29.00;17.80;;;1.60;99.90;;;;;;5036631;28;20037;-81
2023/01/23 11:18:47;;;;;;;29.73;18.38;;;1.60;99.90;;;;;;5025455;28;20040;-79
2023/01/23 11:21:29;;;;;;;29.65;17.33;;;1.50;99.90;;;;;;5019277;28;20041;-81
2023/01/23 11:24:14;;;;;;;30.63;17.25;;;1.50;99.90;;;;;;5043357;28;20041;-81
2023/01/23 11:26:42;;;;;;;33.10;18.40;;;1.60;99.90;;;;;;5041750;28;20048;-82
2023/01/23 11:29:29;;;;;;;39.42;26.08;;;1.60;99.90;;;;;;5050153;28;20029;-82
2023/01/23 11:32:09;;;;;;;24.30;16.05;;;1.80;99.90;;;;;;5063487;28;20124;-80
2023/01/23 11:34:42;;;;;;;29.42;18.88;;;1.70;99.90;;;;;;5040291;28;20077;-80
2023/01/23 11:37:14;;;;;;;32.05;20.10;;;1.70;99.90;;;;;;5036897;28;20041;-82
2023/01/23 11:39:41;;;;;;;33.30;21.38;;;1.80;99.90;;;;;;5046511;28;20064;-82
2023/01/23 11:42:10;;;;;;;39.90;24.30;;;1.90;99.90;;;;;;5039110;28;20110;-82
2023/01/23 11:44:39;;;;;;;34.67;23.63;;;2.00;99.90;;;;;;5037977;28;20045;-81
2023/01/23 11:47:37;;;;;;;32.67;21.58;;;2.00;99.90;;;;;;5031817;28;20041;-82
2023/01/23 11:50:14;;;;;;;50.95;32.88;;;2.10;99.90;;;;;;5040212;28;20119;-81
2023/01/23 11:53:01;;;;;;;40.58;25.17;;;2.20;99.90;;;;;;5019908;28;20280;-82
2023/01/23 11:55:37;;;;;;;56.90;41.83;;;2.20;99.90;;;;;;5045592;28;20052;-82
2023/01/23 11:58:41;;;;;;;34.90;25.08;;;2.00;99.90;;;;;;5040215;28;20072;-82
2023/01/23 12:01:18;;;;;;;39.15;29.27;;;2.10;99.90;;;;;;5017566;28;20556;-82
2023/01/23 12:04:17;;;;;;;35.20;23.48;;;2.00;99.90;;;;;;5030093;28;20045;-82
2023/01/23 12:07:09;;;;;;;39.05;25.17;;;1.80;99.90;;;;;;5037327;28;20032;-83
2023/01/23 12:09:55;;;;;;;36.42;24.35;;;1.90;99.90;;;;;;5036153;28;20488;-82
2023/01/23 12:13:04;;;;;;;37.40;23.20;;;1.90;99.90;;;;;;5046177;28;20051;-81
2023/01/23 12:15:45;;;;;;;37.85;23.58;;;1.90;99.90;;;;;;4986656;28;20051;-81
2023/01/23 12:18:35;;;;;;;36.85;22.65;;;1.90;99.90;;;;;;5010893;28;20137;-82
2023/01/23 12:21:17;;;;;;;42.08;24.88;;;2.00;99.90;;;;;;5014899;28;20083;-81
2023/01/23 12:24:09;;;;;;;35.63;21.45;;;2.00;99.90;;;;;;5044213;28;20046;-80
2023/01/23 12:26:54;;;;;;;46.50;28.90;;;1.90;99.90;;;;;;5036791;28;20132;-81
2023/01/23 12:29:27;;;;;;;38.08;23.73;;;1.90;99.90;;;;;;5019136;28;20585;-80
2023/01/23 12:32:14;;;;;;;48.90;32.15;;;1.90;99.90;;;;;;5039592;28;20050;-81
2023/01/23 12:34:55;;;;;;;42.33;22.65;;;1.80;99.90;;;;;;5020930;28;20106;-81
2023/01/23 12:37:42;;;;;;;38.80;23.60;;;1.90;99.90;;;;;;5041481;28;20055;-82
2023/01/23 12:40:21;;;;;;;38.95;22.73;;;1.80;99.90;;;;;;5038549;28;20118;-83
2023/01/23 12:43:13;;;;;;;41.72;23.88;;;1.90;99.90;;;;;;5053243;28;20040;-83
2023/01/23 12:45:47;;;;;;;40.75;23.65;;;1.90;99.90;;;;;;5038514;28;20075;-81
2023/01/23 12:48:29;;;;;;;38.20;21.98;;;1.70;99.90;;;;;;5021038;28;20441;-82
2023/01/23 12:51:06;;;;;;;42.67;22.88;;;1.70;99.90;;;;;;5024942;28;20639;-82
2023/01/23 12:53:37;;;;;;;42.30;24.55;;;1.70;99.90;;;;;;5034106;28;20136;-81
2023/01/23 12:56:13;;;;;;;40.75;21.80;;;1.70;99.90;;;;;;5025877;28;20114;-81
2023/01/23 12:58:46;;;;;;;43.95;24.20;;;1.70;99.90;;;;;;5032662;28;20041;-81
2023/01/23 13:01:50;;;;;;;39.20;21.02;;;1.70;99.90;;;;;;5036428;28;20048;-81
2023/01/23 13:04:42;;;;;;;44.10;23.80;;;1.60;99.90;;;;;;5036066;28;20811;-81
2023/01/23 13:07:23;;;;;;;34.70;18.55;;;1.60;99.90;;;;;;5043007;28;20068;-81
2023/01/23 13:13:20;;;;;;;39.90;21.20;;;1.70;99.90;;;;;;4958980;28;20048;-81
2023/01/23 13:16:13;;;;;;;37.25;18.88;;;1.70;99.90;;;;;;5017015;28;20037;-82